Time,TemperatureF,DewpointF,PressureIn,WindDirection,WindDirectionDegrees,WindSpeedMPH,WindSpeedGustMPH,Humidity,HourlyPrecipIn,Conditions,Clouds,dailyrainin,SoftwareType,DateUTC
2013-08-18 00:02:00,68.5,57.2,29.83,South,188,0.0,2.0,67,0.00,,,0.00,meteohub,2013-08-18 07:02:00,
2013-08-18 00:07:00,68.4,57.0,29.83,South,188,1.0,2.0,67,0.00,,,0.00,meteohub,2013-08-18 07:07:00,
2013-08-18 00:12:00,68.4,57.0,29.83,South,188,0.0,2.0,67,0.00,,,0.00,meteohub,2013-08-18 07:12:00,
2013-08-18 00:17:00,68.2,56.8,29.83,South,188,0.0,2.0,67,0.00,,,0.00,meteohub,2013-08-18 07:17:00,
2013-08-18 00:22:00,67.6,56.7,29.83,South,188,0.0,2.0,68,0.00,,,0.00,meteohub,2013-08-18 07:22:00,
2013-08-18 00:27:00,67.3,56.3,29.83,South,188,0.0,1.0,68,0.00,,,0.00,meteohub,2013-08-18 07:27:00,
2013-08-18 00:32:00,66.7,56.3,29.83,South,188,0.0,1.0,69,0.00,,,0.00,meteohub,2013-08-18 07:32:00,
2013-08-18 00:37:00,66.4,56.3,29.83,South,188,0.0,0.0,70,0.00,,,0.00,meteohub,2013-08-18 07:37:00,
2013-08-18 00:42:00,65.8,56.1,29.82,South,188,0.0,0.0,71,0.00,,,0.00,meteohub,2013-08-18 07:42:00,
2013-08-18 00:47:00,65.5,56.3,29.82,South,188,0.0,1.0,72,0.00,,,0.00,meteohub,2013-08-18 07:47:00,
2013-08-18 00:52:00,65.1,56.7,29.82,South,188,0.0,1.0,74,0.00,,,0.00,meteohub,2013-08-18 07:52:00,
2013-08-18 00:57:00,64.4,55.9,29.82,South,188,1.0,1.0,74,0.00,,,0.00,meteohub,2013-08-18 07:57:00,
2013-08-18 01:02:00,63.7,55.6,29.82,South,188,0.0,1.0,75,0.00,,,0.00,meteohub,2013-08-18 08:02:00,
2013-08-18 01:07:00,63.3,55.6,29.83,South,188,3.0,3.0,76,0.00,,,0.00,meteohub,2013-08-18 08:07:00,
2013-08-18 01:12:00,63.3,55.2,29.83,South,188,0.0,3.0,75,0.00,,,0.00,meteohub,2013-08-18 08:12:00,
2013-08-18 01:17:00,63.3,55.2,29.82,South,188,1.0,3.0,75,0.00,,,0.00,meteohub,2013-08-18 08:17:00,
2013-08-18 01:22:00,63.1,55.4,29.81,South,188,0.0,3.0,76,0.00,,,0.00,meteohub,2013-08-18 08:22:00,
2013-08-18 01:27:00,63.0,55.2,29.82,South,188,0.0,2.0,76,0.00,,,0.00,meteohub,2013-08-18 08:27:00,
2013-08-18 01:32:00,63.3,54.9,29.83,South,188,0.0,3.0,74,0.00,,,0.00,meteohub,2013-08-18 08:32:00,
2013-08-18 01:37:00,63.5,55.4,29.82,South,188,2.0,3.0,75,0.00,,,0.00,meteohub,2013-08-18 08:37:00,
2013-08-18 01:42:00,63.0,55.2,29.83,South,188,0.0,4.0,76,0.00,,,0.00,meteohub,2013-08-18 08:42:00,
2013-08-18 01:47:00,62.8,55.0,29.82,South,188,0.0,4.0,76,0.00,,,0.00,meteohub,2013-08-18 08:47:00,
2013-08-18 01:52:00,62.8,55.0,29.82,South,188,0.0,4.0,76,0.00,,,0.00,meteohub,2013-08-18 08:52:00,
2013-08-18 01:57:00,62.6,54.9,29.82,South,188,0.0,2.0,76,0.00,,,0.00,meteohub,2013-08-18 08:57:00,
2013-08-18 02:02:00,62.4,54.7,29.81,South,188,0.0,0.0,76,0.00,,,0.00,meteohub,2013-08-18 09:02:00,
2013-08-18 02:07:00,62.2,54.5,29.82,South,188,0.0,1.0,76,0.00,,,0.00,meteohub,2013-08-18 09:07:00,
2013-08-18 02:12:00,62.1,54.7,29.82,South,188,0.0,1.0,77,0.00,,,0.00,meteohub,2013-08-18 09:12:00,
2013-08-18 02:17:00,61.9,54.9,29.81,South,188,0.0,2.0,78,0.00,,,0.00,meteohub,2013-08-18 09:17:00,
2013-08-18 02:22:00,61.5,54.7,29.82,South,188,0.0,2.0,78,0.00,,,0.00,meteohub,2013-08-18 09:22:00,
2013-08-18 02:27:00,61.5,54.7,29.82,South,188,0.0,2.0,78,0.00,,,0.00,meteohub,2013-08-18 09:27:00,
2013-08-18 02:32:00,61.5,54.3,29.82,South,188,0.0,2.0,77,0.00,,,0.00,meteohub,2013-08-18 09:32:00,
2013-08-18 02:37:00,61.5,54.3,29.82,South,188,0.0,2.0,77,0.00,,,0.00,meteohub,2013-08-18 09:37:00,
2013-08-18 02:42:00,61.5,54.3,29.82,South,188,0.0,2.0,77,0.00,,,0.00,meteohub,2013-08-18 09:42:00,
2013-08-18 02:47:00,61.3,54.1,29.82,South,188,0.0,1.0,77,0.00,,,0.00,meteohub,2013-08-18 09:47:00,
2013-08-18 02:52:00,61.2,54.0,29.82,South,188,0.0,1.0,77,0.00,,,0.00,meteohub,2013-08-18 09:52:00,
2013-08-18 02:57:00,60.8,54.0,29.82,South,188,0.0,2.0,78,0.00,,,0.00,meteohub,2013-08-18 09:57:00,
2013-08-18 03:02:00,60.6,53.8,29.82,South,188,0.0,2.0,78,0.00,,,0.00,meteohub,2013-08-18 10:02:00,
2013-08-18 03:07:00,60.6,53.8,29.82,South,188,0.0,2.0,78,0.00,,,0.00,meteohub,2013-08-18 10:07:00,
2013-08-18 03:12:00,60.8,54.0,29.82,South,188,1.0,1.0,78,0.00,,,0.00,meteohub,2013-08-18 10:12:00,
2013-08-18 03:17:00,61.0,53.8,29.81,South,188,0.0,1.0,77,0.00,,,0.00,meteohub,2013-08-18 10:17:00,
2013-08-18 03:22:00,61.3,54.1,29.82,South,188,1.0,3.0,77,0.00,,,0.00,meteohub,2013-08-18 10:22:00,
2013-08-18 03:27:00,61.7,54.1,29.82,South,188,1.0,3.0,76,0.00,,,0.00,meteohub,2013-08-18 10:27:00,
2013-08-18 03:32:00,61.9,53.8,29.81,South,188,1.0,3.0,75,0.00,,,0.00,meteohub,2013-08-18 10:32:00,
2013-08-18 03:37:00,61.9,53.8,29.82,South,188,0.0,3.0,75,0.00,,,0.00,meteohub,2013-08-18 10:37:00,
2013-08-18 03:42:00,62.1,54.0,29.81,South,188,1.0,3.0,75,0.00,,,0.00,meteohub,2013-08-18 10:42:00,
2013-08-18 03:47:00,62.4,54.0,29.82,South,187,0.0,3.0,74,0.00,,,0.00,meteohub,2013-08-18 10:47:00,
2013-08-18 03:52:00,63.3,54.5,29.81,South,187,1.0,3.0,73,0.00,,,0.00,meteohub,2013-08-18 10:52:00,
2013-08-18 03:57:00,64.9,54.5,29.82,NNE,17,2.0,4.0,69,0.00,,,0.00,meteohub,2013-08-18 10:57:00,
2013-08-18 04:02:00,66.4,55.0,29.82,NE,46,6.0,6.0,67,0.00,,,0.00,meteohub,2013-08-18 11:02:00,
2013-08-18 04:07:00,68.2,54.7,29.81,East,88,2.0,6.0,62,0.00,,,0.00,meteohub,2013-08-18 11:07:00,
2013-08-18 04:12:00,69.4,54.9,29.82,NE,34,3.0,6.0,60,0.00,,,0.00,meteohub,2013-08-18 11:12:00,
2013-08-18 04:17:00,70.3,54.9,29.81,ESE,106,0.0,6.0,58,0.00,,,0.00,meteohub,2013-08-18 11:17:00,
2013-08-18 04:22:00,71.2,54.7,29.81,North,11,2.0,6.0,56,0.00,,,0.00,meteohub,2013-08-18 11:22:00,
2013-08-18 04:27:00,71.4,54.9,29.81,NNE,13,0.0,5.0,56,0.00,,,0.00,meteohub,2013-08-18 11:27:00,
2013-08-18 04:32:00,71.4,54.9,29.81,NNE,14,0.0,3.0,56,0.00,,,0.00,meteohub,2013-08-18 11:32:00,
2013-08-18 04:37:00,71.4,55.4,29.81,NNE,14,0.0,3.0,57,0.00,,,0.00,meteohub,2013-08-18 11:37:00,
2013-08-18 04:42:00,71.2,55.2,29.81,NNE,14,0.0,2.0,57,0.00,,,0.00,meteohub,2013-08-18 11:42:00,
2013-08-18 04:47:00,70.9,55.4,29.82,NNE,14,0.0,0.0,58,0.00,,,0.00,meteohub,2013-08-18 11:47:00,
2013-08-18 04:52:00,70.5,55.6,29.82,NNE,14,0.0,0.0,59,0.00,,,0.00,meteohub,2013-08-18 11:52:00,
2013-08-18 04:57:00,70.2,55.6,29.82,NNE,14,0.0,2.0,60,0.00,,,0.00,meteohub,2013-08-18 11:57:00,
2013-08-18 05:02:00,69.3,55.2,29.82,NNE,14,0.0,2.0,61,0.00,,,0.00,meteohub,2013-08-18 12:02:00,
2013-08-18 05:07:00,68.7,55.2,29.82,NNE,14,0.0,2.0,62,0.00,,,0.00,meteohub,2013-08-18 12:07:00,
2013-08-18 05:12:00,68.2,55.0,29.82,NNE,14,0.0,1.0,63,0.00,,,0.00,meteohub,2013-08-18 12:12:00,
2013-08-18 05:17:00,67.5,54.9,29.82,NNE,14,0.0,1.0,64,0.00,,,0.00,meteohub,2013-08-18 12:17:00,
2013-08-18 05:22:00,67.1,54.9,29.82,NNE,14,0.0,1.0,65,0.00,,,0.00,meteohub,2013-08-18 12:22:00,
2013-08-18 05:27:00,66.7,55.0,29.82,NNE,17,0.0,2.0,66,0.00,,,0.00,meteohub,2013-08-18 12:27:00,
2013-08-18 05:32:00,66.7,55.0,29.82,NNE,17,0.0,2.0,66,0.00,,,0.00,meteohub,2013-08-18 12:32:00,
2013-08-18 05:37:00,66.6,54.9,29.82,NNE,17,0.0,2.0,66,0.00,,,0.00,meteohub,2013-08-18 12:37:00,
2013-08-18 05:42:00,66.6,55.2,29.82,NNE,17,0.0,2.0,67,0.00,,,0.00,meteohub,2013-08-18 12:42:00,
2013-08-18 05:47:00,66.4,55.0,29.82,NNE,16,0.0,2.0,67,0.00,,,0.00,meteohub,2013-08-18 12:47:00,
2013-08-18 05:52:00,66.4,55.0,29.82,NNE,16,0.0,1.0,67,0.00,,,0.00,meteohub,2013-08-18 12:52:00,
2013-08-18 05:57:00,66.0,55.2,29.83,NNE,17,0.0,1.0,68,0.00,,,0.00,meteohub,2013-08-18 12:57:00,
2013-08-18 06:02:00,65.8,55.4,29.82,NNE,17,0.0,1.0,69,0.00,,,0.00,meteohub,2013-08-18 13:02:00,
2013-08-18 06:07:00,65.5,54.7,29.83,NNE,17,0.0,2.0,68,0.00,,,0.00,meteohub,2013-08-18 13:07:00,
2013-08-18 06:12:00,65.1,54.7,29.83,NNE,17,2.0,2.0,69,0.00,,,0.00,meteohub,2013-08-18 13:12:00,
2013-08-18 06:17:00,64.8,54.3,29.83,NNE,19,1.0,2.0,69,0.00,,,0.00,meteohub,2013-08-18 13:17:00,
2013-08-18 06:22:00,65.5,55.0,29.83,NE,42,1.0,4.0,69,0.00,,,0.00,meteohub,2013-08-18 13:22:00,
2013-08-18 06:27:00,66.9,55.2,29.83,NE,41,4.0,5.0,66,0.00,,,0.00,meteohub,2013-08-18 13:27:00,
2013-08-18 06:32:00,68.0,55.4,29.83,NE,34,3.0,5.0,64,0.00,,,0.00,meteohub,2013-08-18 13:32:00,
2013-08-18 06:37:00,69.3,55.8,29.83,NE,49,2.0,5.0,62,0.00,,,0.00,meteohub,2013-08-18 13:37:00,
2013-08-18 06:42:00,69.6,55.6,29.84,NE,50,4.0,5.0,61,0.00,,,0.00,meteohub,2013-08-18 13:42:00,
2013-08-18 06:47:00,70.9,55.4,29.84,NE,49,3.0,5.0,58,0.00,,,0.00,meteohub,2013-08-18 13:47:00,
2013-08-18 06:52:00,71.4,55.9,29.84,NE,38,3.0,5.0,58,0.00,,,0.00,meteohub,2013-08-18 13:52:00,
2013-08-18 06:57:00,71.4,55.4,29.84,NE,46,3.0,5.0,57,0.00,,,0.00,meteohub,2013-08-18 13:57:00,
2013-08-18 07:02:00,72.0,55.9,29.84,NE,53,4.0,5.0,57,0.00,,,0.00,meteohub,2013-08-18 14:02:00,
2013-08-18 07:07:00,72.3,55.8,29.84,NNE,17,3.0,5.0,56,0.00,,,0.00,meteohub,2013-08-18 14:07:00,
2013-08-18 07:12:00,73.0,55.9,29.84,NE,38,2.0,8.0,55,0.00,,,0.00,meteohub,2013-08-18 14:12:00,
2013-08-18 07:17:00,73.4,56.3,29.84,NNE,28,2.0,8.0,55,0.00,,,0.00,meteohub,2013-08-18 14:17:00,
2013-08-18 07:22:00,73.8,56.1,29.84,NE,44,1.0,8.0,54,0.00,,,0.00,meteohub,2013-08-18 14:22:00,
2013-08-18 07:27:00,73.8,57.0,29.85,NE,47,3.0,7.0,56,0.00,,,0.00,meteohub,2013-08-18 14:27:00,
2013-08-18 07:32:00,73.6,56.8,29.84,NNE,30,1.0,7.0,56,0.00,,,0.00,meteohub,2013-08-18 14:32:00,
2013-08-18 07:37:00,73.4,56.3,29.85,NE,45,4.0,6.0,55,0.00,,,0.00,meteohub,2013-08-18 14:37:00,
2013-08-18 07:42:00,73.6,56.8,29.84,NNW,341,2.0,6.0,56,0.00,,,0.00,meteohub,2013-08-18 14:42:00,
2013-08-18 07:47:00,73.9,56.8,29.85,NNE,31,4.0,5.0,55,0.00,,,0.00,meteohub,2013-08-18 14:47:00,
2013-08-18 07:52:00,74.5,56.7,29.85,NNE,26,4.0,7.0,54,0.00,,,0.00,meteohub,2013-08-18 14:52:00,
2013-08-18 07:57:00,75.0,56.7,29.85,NE,40,3.0,7.0,53,0.00,,,0.00,meteohub,2013-08-18 14:57:00,
2013-08-18 08:01:00,75.6,56.7,29.85,NE,53,4.0,7.0,52,0.00,,,0.00,meteohub,2013-08-18 15:01:00,
2013-08-18 08:07:00,75.9,57.6,29.85,NE,53,4.0,7.0,53,0.00,,,0.00,meteohub,2013-08-18 15:07:00,
2013-08-18 08:12:00,76.3,56.8,29.85,NE,38,6.0,8.0,51,0.00,,,0.00,meteohub,2013-08-18 15:12:00,
2013-08-18 08:17:00,76.6,57.2,29.85,NNE,30,4.0,8.0,51,0.00,,,0.00,meteohub,2013-08-18 15:17:00,
2013-08-18 08:22:00,77.0,57.0,29.85,NNE,29,6.0,8.0,50,0.00,,,0.00,meteohub,2013-08-18 15:22:00,
2013-08-18 08:27:00,77.4,57.2,29.85,NE,47,4.0,8.0,50,0.00,,,0.00,meteohub,2013-08-18 15:27:00,
2013-08-18 08:32:00,77.5,56.8,29.85,NE,37,3.0,8.0,49,0.00,,,0.00,meteohub,2013-08-18 15:32:00,
2013-08-18 08:37:00,77.9,57.2,29.85,ENE,57,4.0,8.0,49,0.00,,,0.00,meteohub,2013-08-18 15:37:00,
2013-08-18 08:42:00,78.1,57.4,29.85,NNE,22,4.0,8.0,49,0.00,,,0.00,meteohub,2013-08-18 15:42:00,
2013-08-18 08:47:00,78.3,57.6,29.85,NE,46,5.0,8.0,49,0.00,,,0.00,meteohub,2013-08-18 15:47:00,
2013-08-18 08:52:00,78.4,57.7,29.85,NE,43,3.0,9.0,49,0.00,,,0.00,meteohub,2013-08-18 15:52:00,
2013-08-18 08:57:00,78.8,57.4,29.86,NNE,26,6.0,9.0,48,0.00,,,0.00,meteohub,2013-08-18 15:57:00,
2013-08-18 09:02:00,79.2,57.7,29.86,NNE,28,5.0,9.0,48,0.00,,,0.00,meteohub,2013-08-18 16:02:00,
2013-08-18 09:07:00,79.2,57.2,29.86,NE,47,4.0,10.0,47,0.00,,,0.00,meteohub,2013-08-18 16:07:00,
2013-08-18 09:12:00,79.5,57.6,29.86,NNE,28,3.0,11.0,47,0.00,,,0.00,meteohub,2013-08-18 16:12:00,
2013-08-18 09:17:00,79.7,57.0,29.86,ENE,67,4.0,11.0,46,0.00,,,0.00,meteohub,2013-08-18 16:17:00,
2013-08-18 09:22:00,79.9,58.5,29.86,NE,55,5.0,11.0,48,0.00,,,0.00,meteohub,2013-08-18 16:22:00,
2013-08-18 09:27:00,80.1,57.4,29.86,NE,38,5.0,9.0,46,0.00,,,0.00,meteohub,2013-08-18 16:27:00,
2013-08-18 09:32:00,80.2,57.0,29.86,NE,43,5.0,10.0,45,0.00,,,0.00,meteohub,2013-08-18 16:32:00,
2013-08-18 09:37:00,80.4,57.2,29.86,NE,37,5.0,10.0,45,0.00,,,0.00,meteohub,2013-08-18 16:37:00,
2013-08-18 09:42:00,80.8,56.8,29.86,ENE,61,4.0,10.0,44,0.00,,,0.00,meteohub,2013-08-18 16:42:00,
2013-08-18 09:47:00,80.8,57.4,29.86,NE,51,5.0,10.0,45,0.00,,,0.00,meteohub,2013-08-18 16:47:00,
2013-08-18 09:52:00,81.0,57.0,29.86,NE,51,4.0,9.0,44,0.00,,,0.00,meteohub,2013-08-18 16:52:00,
2013-08-18 09:57:00,81.1,57.2,29.86,NE,49,4.0,9.0,44,0.00,,,0.00,meteohub,2013-08-18 16:57:00,
2013-08-18 10:02:00,81.1,56.5,29.86,NE,55,4.0,9.0,43,0.00,,,0.00,meteohub,2013-08-18 17:02:00,
2013-08-18 10:07:00,81.5,57.6,29.86,NNE,20,4.0,10.0,44,0.00,,,0.00,meteohub,2013-08-18 17:07:00,
2013-08-18 10:12:00,82.0,57.4,29.86,NNE,19,6.0,10.0,43,0.00,,,0.00,meteohub,2013-08-18 17:12:00,
2013-08-18 10:17:00,82.8,57.4,29.86,NE,55,5.0,11.0,42,0.00,,,0.00,meteohub,2013-08-18 17:17:00,
2013-08-18 10:22:00,83.1,57.6,29.86,ENE,57,4.0,11.0,42,0.00,,,0.00,meteohub,2013-08-18 17:22:00,
2013-08-18 10:27:00,83.5,57.4,29.86,NE,34,2.0,11.0,41,0.00,,,0.00,meteohub,2013-08-18 17:27:00,
2013-08-18 10:32:00,83.8,57.0,29.86,ENE,68,2.0,7.0,40,0.00,,,0.00,meteohub,2013-08-18 17:32:00,
2013-08-18 10:37:00,84.2,57.2,29.86,North,355,4.0,9.0,40,0.00,,,0.00,meteohub,2013-08-18 17:37:00,
2013-08-18 10:42:00,84.4,57.4,29.86,ENE,61,5.0,10.0,40,0.00,,,0.00,meteohub,2013-08-18 17:42:00,
2013-08-18 10:47:00,84.7,57.7,29.86,ENE,67,4.0,10.0,40,0.00,,,0.00,meteohub,2013-08-18 17:47:00,
2013-08-18 10:52:00,84.9,57.2,29.86,NNE,18,5.0,10.0,39,0.00,,,0.00,meteohub,2013-08-18 17:52:00,
2013-08-18 10:57:00,85.3,56.8,29.86,NE,37,3.0,8.0,38,0.00,,,0.00,meteohub,2013-08-18 17:57:00,
2013-08-18 11:02:00,85.6,57.9,29.86,North,5,3.0,8.0,39,0.00,,,0.00,meteohub,2013-08-18 18:02:00,
2013-08-18 11:07:00,85.8,57.9,29.86,North,349,2.0,8.0,39,0.00,,,0.00,meteohub,2013-08-18 18:07:00,
2013-08-18 11:12:00,86.4,57.7,29.86,NE,38,4.0,8.0,38,0.00,,,0.00,meteohub,2013-08-18 18:12:00,
2013-08-18 11:17:00,86.5,57.9,29.86,NNE,31,4.0,8.0,38,0.00,,,0.00,meteohub,2013-08-18 18:17:00,
2013-08-18 11:22:00,87.1,57.6,29.86,NNE,30,7.0,7.0,37,0.00,,,0.00,meteohub,2013-08-18 18:22:00,
2013-08-18 11:27:00,87.1,57.6,29.86,NNE,22,0.0,10.0,37,0.00,,,0.00,meteohub,2013-08-18 18:27:00,
2013-08-18 11:32:00,87.6,58.1,29.86,NE,36,2.0,10.0,37,0.00,,,0.00,meteohub,2013-08-18 18:32:00,
2013-08-18 11:37:00,88.0,57.7,29.86,NNE,33,0.0,10.0,36,0.00,,,0.00,meteohub,2013-08-18 18:37:00,
2013-08-18 11:42:00,88.2,57.9,29.85,NE,50,5.0,7.0,36,0.00,,,0.00,meteohub,2013-08-18 18:42:00,
2013-08-18 11:47:00,88.2,57.9,29.85,NE,43,3.0,7.0,36,0.00,,,0.00,meteohub,2013-08-18 18:47:00,
2013-08-18 11:52:00,88.5,57.4,29.85,ENE,65,1.0,6.0,35,0.00,,,0.00,meteohub,2013-08-18 18:52:00,
2013-08-18 11:57:00,89.1,57.0,29.85,North,11,2.0,6.0,34,0.00,,,0.00,meteohub,2013-08-18 18:57:00,
2013-08-18 12:01:00,89.1,57.9,29.85,NE,36,4.0,8.0,35,0.00,,,0.00,meteohub,2013-08-18 19:01:00,
2013-08-18 12:07:00,89.2,57.2,29.85,North,0,1.0,8.0,34,0.00,,,0.00,meteohub,2013-08-18 19:07:00,
2013-08-18 12:12:00,89.8,57.7,29.85,ENE,62,4.0,8.0,34,0.00,,,0.00,meteohub,2013-08-18 19:12:00,
2013-08-18 12:17:00,89.8,56.8,29.85,NW,313,8.0,8.0,33,0.00,,,0.00,meteohub,2013-08-18 19:17:00,
2013-08-18 12:22:00,90.0,57.0,29.85,North,5,1.0,9.0,33,0.00,,,0.00,meteohub,2013-08-18 19:22:00,
2013-08-18 12:27:00,90.1,56.3,29.85,NE,36,4.0,9.0,32,0.00,,,0.00,meteohub,2013-08-18 19:27:00,
2013-08-18 12:32:00,90.7,57.6,29.85,NW,321,2.0,9.0,33,0.00,,,0.00,meteohub,2013-08-18 19:32:00,
2013-08-18 12:37:00,91.2,57.2,29.85,West,276,0.0,8.0,32,0.00,,,0.00,meteohub,2013-08-18 19:37:00,
2013-08-18 12:42:00,91.8,57.7,29.84,ENE,64,2.0,6.0,32,0.00,,,0.00,meteohub,2013-08-18 19:42:00,
2013-08-18 12:47:00,92.5,61.7,29.84,South,184,5.0,6.0,36,0.00,,,0.00,meteohub,2013-08-18 19:47:00,
2013-08-18 12:52:00,91.9,61.2,29.84,SW,223,5.0,7.0,36,0.00,,,0.00,meteohub,2013-08-18 19:52:00,
2013-08-18 12:57:00,91.4,62.2,29.84,SW,225,3.0,7.0,38,0.00,,,0.00,meteohub,2013-08-18 19:57:00,
2013-08-18 13:02:00,91.0,61.2,29.84,SSW,192,3.0,7.0,37,0.00,,,0.00,meteohub,2013-08-18 20:02:00,
2013-08-18 13:07:00,90.9,61.0,29.84,SSW,192,3.0,7.0,37,0.00,,,0.00,meteohub,2013-08-18 20:07:00,
2013-08-18 13:12:00,90.7,60.8,29.83,South,174,5.0,7.0,37,0.00,,,0.00,meteohub,2013-08-18 20:12:00,
2013-08-18 13:16:00,90.1,60.4,29.83,South,180,4.0,8.0,37,0.00,,,0.00,meteohub,2013-08-18 20:16:00,
2013-08-18 13:22:00,90.1,61.2,29.83,SSW,202,2.0,8.0,38,0.00,,,0.00,meteohub,2013-08-18 20:22:00,
2013-08-18 13:27:00,90.1,60.4,29.83,SSW,196,4.0,8.0,37,0.00,,,0.00,meteohub,2013-08-18 20:27:00,
2013-08-18 13:32:00,90.3,60.4,29.83,SW,218,3.0,8.0,37,0.00,,,0.00,meteohub,2013-08-18 20:32:00,
2013-08-18 13:37:00,90.1,60.4,29.83,SSE,161,4.0,7.0,37,0.00,,,0.00,meteohub,2013-08-18 20:37:00,
2013-08-18 13:42:00,89.4,59.7,29.83,South,188,4.0,7.0,37,0.00,,,0.00,meteohub,2013-08-18 20:42:00,
2013-08-18 13:47:00,89.2,61.0,29.83,South,185,3.0,7.0,39,0.00,,,0.00,meteohub,2013-08-18 20:47:00,
2013-08-18 13:52:00,89.2,61.0,29.83,SW,218,4.0,7.0,39,0.00,,,0.00,meteohub,2013-08-18 20:52:00,
2013-08-18 13:57:00,89.2,61.7,29.83,SSW,198,4.0,6.0,40,0.00,,,0.00,meteohub,2013-08-18 20:57:00,
2013-08-18 14:02:00,89.6,62.1,29.83,SSW,198,3.0,6.0,40,0.00,,,0.00,meteohub,2013-08-18 21:02:00,
2013-08-18 14:07:00,90.1,61.9,29.82,SSW,200,2.0,6.0,39,0.00,,,0.00,meteohub,2013-08-18 21:07:00,
2013-08-18 14:12:00,91.0,61.2,29.82,SSW,211,3.0,6.0,37,0.00,,,0.00,meteohub,2013-08-18 21:12:00,
2013-08-18 14:17:00,91.2,60.6,29.82,SSW,196,4.0,7.0,36,0.00,,,0.00,meteohub,2013-08-18 21:17:00,
2013-08-18 14:22:00,91.6,60.1,29.82,SW,216,4.0,7.0,35,0.00,,,0.00,meteohub,2013-08-18 21:22:00,
2013-08-18 14:27:00,91.6,60.8,29.81,SSW,210,2.0,7.0,36,0.00,,,0.00,meteohub,2013-08-18 21:27:00,
2013-08-18 14:32:00,91.6,62.4,29.82,SSW,213,6.0,7.0,38,0.00,,,0.00,meteohub,2013-08-18 21:32:00,
2013-08-18 14:36:00,91.6,61.7,29.81,South,190,4.0,6.0,37,0.00,,,0.00,meteohub,2013-08-18 21:36:00,
2013-08-18 14:42:00,91.9,62.8,29.81,SSW,198,4.0,7.0,38,0.00,,,0.00,meteohub,2013-08-18 21:42:00,
2013-08-18 14:47:00,91.9,61.9,29.82,SSW,204,3.0,9.0,37,0.00,,,0.00,meteohub,2013-08-18 21:47:00,
2013-08-18 14:52:00,92.1,62.1,29.82,SSW,207,4.0,9.0,37,0.00,,,0.00,meteohub,2013-08-18 21:52:00,
2013-08-18 14:57:00,92.1,61.3,29.81,WSW,238,7.0,9.0,36,0.00,,,0.00,meteohub,2013-08-18 21:57:00,
2013-08-18 15:02:00,92.3,61.5,29.81,SW,227,3.0,10.0,36,0.00,,,0.00,meteohub,2013-08-18 22:02:00,
2013-08-18 15:07:00,92.5,61.7,29.81,WSW,244,4.0,10.0,36,0.00,,,0.00,meteohub,2013-08-18 22:07:00,
2013-08-18 15:12:00,92.7,61.9,29.81,SW,215,3.0,10.0,36,0.00,,,0.00,meteohub,2013-08-18 22:12:00,
2013-08-18 15:17:00,92.8,61.9,29.81,South,188,3.0,9.0,36,0.00,,,0.00,meteohub,2013-08-18 22:17:00,
2013-08-18 15:22:00,92.7,61.9,29.81,South,187,4.0,8.0,36,0.00,,,0.00,meteohub,2013-08-18 22:22:00,
2013-08-18 15:27:00,92.7,61.9,29.81,WSW,248,3.0,8.0,36,0.00,,,0.00,meteohub,2013-08-18 22:27:00,
2013-08-18 15:31:00,92.8,61.9,29.80,WSW,254,4.0,8.0,36,0.00,,,0.00,meteohub,2013-08-18 22:31:00,
2013-08-18 15:36:00,93.0,62.1,29.80,WSW,242,3.0,8.0,36,0.00,,,0.00,meteohub,2013-08-18 22:36:00,
2013-08-18 15:42:00,93.0,62.1,29.80,SW,217,2.0,8.0,36,0.00,,,0.00,meteohub,2013-08-18 22:42:00,
2013-08-18 15:47:00,93.4,62.4,29.79,South,183,9.0,9.0,36,0.00,,,0.00,meteohub,2013-08-18 22:47:00,
2013-08-18 15:52:00,93.0,62.1,29.79,SW,217,5.0,11.0,36,0.00,,,0.00,meteohub,2013-08-18 22:52:00,
2013-08-18 15:57:00,93.0,62.1,29.79,SSW,197,5.0,11.0,36,0.00,,,0.00,meteohub,2013-08-18 22:57:00,
2013-08-18 16:02:00,93.4,62.4,29.79,SSW,200,7.0,11.0,36,0.00,,,0.00,meteohub,2013-08-18 23:02:00,
2013-08-18 16:07:00,93.6,63.3,29.79,SW,219,6.0,9.0,37,0.00,,,0.00,meteohub,2013-08-18 23:07:00,
2013-08-18 16:12:00,93.9,63.0,29.79,West,280,1.0,9.0,36,0.00,,,0.00,meteohub,2013-08-18 23:12:00,
2013-08-18 16:17:00,94.3,63.1,29.78,South,187,7.0,9.0,36,0.00,,,0.00,meteohub,2013-08-18 23:17:00,
2013-08-18 16:22:00,94.3,62.4,29.78,WNW,287,5.0,8.0,35,0.00,,,0.00,meteohub,2013-08-18 23:22:00,
2013-08-18 16:27:00,94.3,61.5,29.78,SSW,213,3.0,10.0,34,0.00,,,0.00,meteohub,2013-08-18 23:27:00,
2013-08-18 16:32:00,94.5,63.3,29.78,WNW,284,6.0,10.0,36,0.00,,,0.00,meteohub,2013-08-18 23:32:00,
2013-08-18 16:37:00,94.6,62.8,29.78,West,277,7.0,10.0,35,0.00,,,0.00,meteohub,2013-08-18 23:37:00,
2013-08-18 16:42:00,94.6,61.9,29.78,WSW,258,1.0,8.0,34,0.00,,,0.00,meteohub,2013-08-18 23:42:00,
2013-08-18 16:47:00,95.2,62.4,29.78,SSW,204,5.0,8.0,34,0.00,,,0.00,meteohub,2013-08-18 23:47:00,
2013-08-18 16:52:00,95.0,63.1,29.77,WSW,251,9.0,9.0,35,0.00,,,0.00,meteohub,2013-08-18 23:52:00,
2013-08-18 16:57:00,94.8,62.1,29.77,SSW,209,4.0,9.0,34,0.00,,,0.00,meteohub,2013-08-18 23:57:00,
2013-08-18 17:02:00,94.5,61.7,29.77,South,176,2.0,9.0,34,0.00,,,0.00,meteohub,2013-08-19 00:02:00,
2013-08-18 17:07:00,94.5,61.7,29.77,SSE,159,8.0,9.0,34,0.00,,,0.00,meteohub,2013-08-19 00:07:00,
2013-08-18 17:12:00,94.3,62.4,29.78,SW,221,3.0,9.0,35,0.00,,,0.00,meteohub,2013-08-19 00:12:00,
2013-08-18 17:17:00,94.3,60.8,29.77,WSW,253,7.0,9.0,33,0.00,,,0.00,meteohub,2013-08-19 00:17:00,
2013-08-18 17:22:00,94.1,58.8,29.77,WSW,246,3.0,9.0,31,0.00,,,0.00,meteohub,2013-08-19 00:22:00,
2013-08-18 17:27:00,93.9,59.5,29.77,WSW,247,8.0,9.0,32,0.00,,,0.00,meteohub,2013-08-19 00:27:00,
2013-08-18 17:32:00,93.7,58.5,29.77,SSW,199,4.0,9.0,31,0.00,,,0.00,meteohub,2013-08-19 00:32:00,
2013-08-18 17:37:00,93.4,59.2,29.77,SW,215,5.0,9.0,32,0.00,,,0.00,meteohub,2013-08-19 00:37:00,
2013-08-18 17:42:00,93.0,57.9,29.77,SSW,202,3.0,9.0,31,0.00,,,0.00,meteohub,2013-08-19 00:42:00,
2013-08-18 17:47:00,92.7,58.5,29.77,SW,220,4.0,9.0,32,0.00,,,0.00,meteohub,2013-08-19 00:47:00,
2013-08-18 17:52:00,92.3,58.1,29.77,South,190,4.0,9.0,32,0.00,,,0.00,meteohub,2013-08-19 00:52:00,
2013-08-18 17:57:00,91.9,59.5,29.77,SW,225,7.0,9.0,34,0.00,,,0.00,meteohub,2013-08-19 00:57:00,
2013-08-18 18:02:00,91.8,58.6,29.76,South,183,3.0,9.0,33,0.00,,,0.00,meteohub,2013-08-19 01:02:00,
2013-08-18 18:07:00,91.8,58.6,29.76,WSW,249,1.0,9.0,33,0.00,,,0.00,meteohub,2013-08-19 01:07:00,
2013-08-18 18:12:00,91.6,57.6,29.76,SSW,194,4.0,10.0,32,0.00,,,0.00,meteohub,2013-08-19 01:12:00,
2013-08-18 18:17:00,91.2,58.1,29.77,South,188,5.0,10.0,33,0.00,,,0.00,meteohub,2013-08-19 01:17:00,
2013-08-18 18:22:00,91.0,57.9,29.76,WSW,249,4.0,10.0,33,0.00,,,0.00,meteohub,2013-08-19 01:22:00,
2013-08-18 18:27:00,90.9,58.6,29.76,SSW,205,3.0,9.0,34,0.00,,,0.00,meteohub,2013-08-19 01:27:00,
2013-08-18 18:32:00,90.5,58.3,29.76,SW,215,5.0,8.0,34,0.00,,,0.00,meteohub,2013-08-19 01:32:00,
2013-08-18 18:37:00,90.3,58.1,29.76,SW,225,3.0,8.0,34,0.00,,,0.00,meteohub,2013-08-19 01:37:00,
2013-08-18 18:42:00,90.0,57.7,29.76,SW,214,5.0,8.0,34,0.00,,,0.00,meteohub,2013-08-19 01:42:00,
2013-08-18 18:47:00,89.8,57.7,29.75,WSW,252,3.0,8.0,34,0.00,,,0.00,meteohub,2013-08-19 01:47:00,
2013-08-18 18:52:00,89.4,57.4,29.76,SSW,200,5.0,8.0,34,0.00,,,0.00,meteohub,2013-08-19 01:52:00,
2013-08-18 18:57:00,89.2,57.9,29.76,SW,224,4.0,7.0,35,0.00,,,0.00,meteohub,2013-08-19 01:57:00,
2013-08-18 19:02:00,89.1,57.9,29.76,SW,221,3.0,7.0,35,0.00,,,0.00,meteohub,2013-08-19 02:02:00,
2013-08-18 19:07:00,88.9,57.7,29.76,SSW,209,3.0,7.0,35,0.00,,,0.00,meteohub,2013-08-19 02:07:00,
2013-08-18 19:12:00,88.5,58.1,29.77,SSW,212,3.0,7.0,36,0.00,,,0.00,meteohub,2013-08-19 02:12:00,
2013-08-18 19:17:00,88.3,57.9,29.77,SSW,207,3.0,7.0,36,0.00,,,0.00,meteohub,2013-08-19 02:17:00,
2013-08-18 19:22:00,88.2,57.9,29.77,SSW,209,3.0,6.0,36,0.00,,,0.00,meteohub,2013-08-19 02:22:00,
2013-08-18 19:27:00,87.8,58.3,29.77,SSW,213,3.0,6.0,37,0.00,,,0.00,meteohub,2013-08-19 02:27:00,
2013-08-18 19:32:00,87.4,57.2,29.76,SSW,202,3.0,6.0,36,0.00,,,0.00,meteohub,2013-08-19 02:32:00,
2013-08-18 19:37:00,86.9,57.6,29.76,SSW,205,3.0,6.0,37,0.00,,,0.00,meteohub,2013-08-19 02:37:00,
2013-08-18 19:42:00,86.5,57.2,29.76,SSW,204,1.0,6.0,37,0.00,,,0.00,meteohub,2013-08-19 02:42:00,
2013-08-18 19:47:00,86.2,57.6,29.76,SSW,207,2.0,6.0,38,0.00,,,0.00,meteohub,2013-08-19 02:47:00,
2013-08-18 19:52:00,85.5,57.7,29.76,SSW,206,2.0,6.0,39,0.00,,,0.00,meteohub,2013-08-19 02:52:00,
2013-08-18 19:57:00,84.9,57.2,29.76,SSW,206,3.0,5.0,39,0.00,,,0.00,meteohub,2013-08-19 02:57:00,
2013-08-18 20:02:00,84.4,57.4,29.77,SSW,206,2.0,5.0,40,0.00,,,0.00,meteohub,2013-08-19 03:02:00,
2013-08-18 20:07:00,83.8,57.0,29.77,SSW,206,2.0,5.0,40,0.00,,,0.00,meteohub,2013-08-19 03:07:00,
2013-08-18 20:12:00,83.5,57.4,29.77,SSW,206,3.0,5.0,41,0.00,,,0.00,meteohub,2013-08-19 03:12:00,
2013-08-18 20:17:00,82.9,57.6,29.77,SSW,206,3.0,4.0,42,0.00,,,0.00,meteohub,2013-08-19 03:17:00,
2013-08-18 20:22:00,82.6,57.2,29.77,SSW,206,3.0,4.0,42,0.00,,,0.00,meteohub,2013-08-19 03:22:00,
2013-08-18 20:27:00,82.2,56.8,29.77,SSW,206,2.0,4.0,42,0.00,,,0.00,meteohub,2013-08-19 03:27:00,
2013-08-18 20:32:00,82.0,56.7,29.77,SSW,206,1.0,4.0,42,0.00,,,0.00,meteohub,2013-08-19 03:32:00,
2013-08-18 20:37:00,82.0,56.7,29.77,SSW,206,1.0,4.0,42,0.00,,,0.00,meteohub,2013-08-19 03:37:00,
2013-08-18 20:42:00,82.0,56.7,29.77,SSW,206,2.0,4.0,42,0.00,,,0.00,meteohub,2013-08-19 03:42:00,
2013-08-18 20:47:00,81.9,56.5,29.77,SSW,206,1.0,3.0,42,0.00,,,0.00,meteohub,2013-08-19 03:47:00,
2013-08-18 20:52:00,81.9,56.5,29.77,SSW,206,0.0,3.0,42,0.00,,,0.00,meteohub,2013-08-19 03:52:00,
2013-08-18 20:57:00,81.9,57.7,29.78,SSW,206,0.0,3.0,44,0.00,,,0.00,meteohub,2013-08-19 03:57:00,
2013-08-18 21:01:00,81.7,57.0,29.78,SSW,206,0.0,3.0,43,0.00,,,0.00,meteohub,2013-08-19 04:01:00,
2013-08-18 21:06:00,81.1,56.5,29.78,SSW,206,1.0,3.0,43,0.00,,,0.00,meteohub,2013-08-19 04:06:00,
2013-08-18 21:11:00,81.1,56.5,29.78,SSW,206,2.0,3.0,43,0.00,,,0.00,meteohub,2013-08-19 04:11:00,
2013-08-18 21:16:00,81.1,56.5,29.77,SSW,206,1.0,3.0,43,0.00,,,0.00,meteohub,2013-08-19 04:16:00,
2013-08-18 21:21:00,81.1,56.5,29.78,SSW,206,1.0,3.0,43,0.00,,,0.00,meteohub,2013-08-19 04:21:00,
2013-08-18 21:26:00,81.0,56.3,29.78,SSW,206,1.0,3.0,43,0.00,,,0.00,meteohub,2013-08-19 04:26:00,
2013-08-18 21:31:00,81.0,56.3,29.78,SSW,206,1.0,3.0,43,0.00,,,0.00,meteohub,2013-08-19 04:31:00,
2013-08-18 21:36:00,80.8,56.1,29.78,SSW,206,1.0,3.0,43,0.00,,,0.00,meteohub,2013-08-19 04:36:00,
2013-08-18 21:41:00,80.8,56.8,29.78,SSW,206,0.0,2.0,44,0.00,,,0.00,meteohub,2013-08-19 04:41:00,
2013-08-18 21:46:00,80.8,56.8,29.78,SSW,206,1.0,2.0,44,0.00,,,0.00,meteohub,2013-08-19 04:46:00,
2013-08-18 21:51:00,80.8,56.8,29.78,SSW,206,0.0,2.0,44,0.00,,,0.00,meteohub,2013-08-19 04:51:00,
2013-08-18 21:57:00,80.8,56.8,29.78,SSW,206,0.0,2.0,44,0.00,,,0.00,meteohub,2013-08-19 04:57:00,
2013-08-18 22:02:00,80.8,56.8,29.77,SSW,206,0.0,2.0,44,0.00,,,0.00,meteohub,2013-08-19 05:02:00,
2013-08-18 22:07:00,80.6,56.7,29.78,SSW,206,0.0,2.0,44,0.00,,,0.00,meteohub,2013-08-19 05:07:00,
2013-08-18 22:12:00,80.4,57.2,29.77,SSW,206,0.0,2.0,45,0.00,,,0.00,meteohub,2013-08-19 05:12:00,
2013-08-18 22:17:00,80.2,57.6,29.78,SSW,206,0.0,1.0,46,0.00,,,0.00,meteohub,2013-08-19 05:17:00,
2013-08-18 22:22:00,79.7,57.0,29.78,SSW,206,0.0,1.0,46,0.00,,,0.00,meteohub,2013-08-19 05:22:00,
2013-08-18 22:27:00,79.3,57.4,29.77,SSW,206,1.0,1.0,47,0.00,,,0.00,meteohub,2013-08-19 05:27:00,
2013-08-18 22:32:00,79.2,57.2,29.77,SSW,206,0.0,2.0,47,0.00,,,0.00,meteohub,2013-08-19 05:32:00,
2013-08-18 22:37:00,79.2,57.7,29.77,SSW,206,0.0,2.0,48,0.00,,,0.00,meteohub,2013-08-19 05:37:00,
2013-08-18 22:42:00,79.0,57.6,29.77,SSW,206,0.0,2.0,48,0.00,,,0.00,meteohub,2013-08-19 05:42:00,
2013-08-18 22:47:00,77.9,57.2,29.77,SSW,206,0.0,1.0,49,0.00,,,0.00,meteohub,2013-08-19 05:47:00,
2013-08-18 22:52:00,76.6,57.2,29.77,SSW,206,0.0,4.0,51,0.00,,,0.00,meteohub,2013-08-19 05:52:00,
2013-08-18 22:57:00,75.9,57.0,29.77,SSW,206,1.0,4.0,52,0.00,,,0.00,meteohub,2013-08-19 05:57:00,
2013-08-18 23:02:00,75.6,57.2,29.78,SSW,206,0.0,4.0,53,0.00,,,0.00,meteohub,2013-08-19 06:02:00,
2013-08-18 23:07:00,75.0,57.2,29.78,SSW,206,0.0,4.0,54,0.00,,,0.00,meteohub,2013-08-19 06:07:00,
2013-08-18 23:12:00,74.7,57.4,29.78,SSW,206,0.0,1.0,55,0.00,,,0.00,meteohub,2013-08-19 06:12:00,
2013-08-18 23:17:00,74.5,57.2,29.78,SSW,206,1.0,0.0,55,0.00,,,0.00,meteohub,2013-08-19 06:17:00,
2013-08-18 23:22:00,73.6,57.4,29.78,SSW,206,2.0,2.0,57,0.00,,,0.00,meteohub,2013-08-19 06:22:00,
2013-08-18 23:27:00,72.7,57.0,29.78,SSW,206,1.0,4.0,58,0.00,,,0.00,meteohub,2013-08-19 06:27:00,
2013-08-18 23:32:00,72.3,56.7,29.79,SSW,206,1.0,4.0,58,0.00,,,0.00,meteohub,2013-08-19 06:32:00,
2013-08-18 23:37:00,72.0,56.8,29.78,SSW,206,0.0,4.0,59,0.00,,,0.00,meteohub,2013-08-19 06:37:00,
2013-08-18 23:42:00,72.0,57.4,29.78,SSW,206,0.0,4.0,60,0.00,,,0.00,meteohub,2013-08-19 06:42:00,
2013-08-18 23:47:00,71.8,56.7,29.78,SSW,206,0.0,3.0,59,0.00,,,0.00,meteohub,2013-08-19 06:47:00,
2013-08-18 23:52:00,71.8,57.2,29.78,SSW,206,0.0,2.0,60,0.00,,,0.00,meteohub,2013-08-19 06:52:00,
2013-08-18 23:57:00,71.8,57.6,29.79,SSW,206,0.0,2.0,61,0.00,,,0.00,meteohub,2013-08-19 06:57:00,